TimePST,TemperatureF,Dew PointF,Humidity,Sea Level PressureIn,VisibilityMPH,Wind Direction,Wind SpeedMPH,Gust SpeedMPH,PrecipitationIn,Events,Conditions,WindDirDegrees,DateUTC
12:15 AM,35.6,32.0,87,30.02,10.0,Calm,Calm,-,N/A,,Mostly Cloudy,0,2014-02-03 08:15:00
12:35 AM,35.6,33.8,93,30.02,10.0,Calm,Calm,-,N/A,,Mostly Cloudy,0,2014-02-03 08:35:00
12:55 AM,37.4,33.8,87,30.02,10.0,Calm,Calm,-,N/A,,Overcast,0,2014-02-03 08:55:00
1:15 AM,33.8,32.0,93,30.03,10.0,Calm,Calm,-,N/A,,Overcast,0,2014-02-03 09:15:00
1:35 AM,35.6,33.8,93,30.03,10.0,Calm,Calm,-,N/A,,Scattered Clouds,0,2014-02-03 09:35:00
1:55 AM,33.8,30.2,87,30.04,10.0,Calm,Calm,-,N/A,,Clear,0,2014-02-03 09:55:00
2:15 AM,33.8,30.2,87,30.04,10.0,WNW,3.5,-,N/A,,Clear,290,2014-02-03 10:15:00
2:35 AM,33.8,33.8,100,30.04,10.0,WNW,4.6,-,N/A,,Scattered Clouds,290,2014-02-03 10:35:00
2:55 AM,33.8,30.2,87,30.04,10.0,WNW,5.8,-,N/A,,Overcast,300,2014-02-03 10:55:00
3:15 AM,33.8,30.2,87,30.04,10.0,West,4.6,-,N/A,,Mostly Cloudy,280,2014-02-03 11:15:00
3:35 AM,33.8,30.2,87,30.04,10.0,WSW,4.6,-,N/A,,Mostly Cloudy,250,2014-02-03 11:35:00
3:55 AM,33.8,30.2,87,30.04,10.0,SSW,3.5,-,N/A,,Overcast,210,2014-02-03 11:55:00
4:15 AM,33.8,30.2,87,30.05,10.0,Calm,Calm,-,N/A,,Overcast,0,2014-02-03 12:15:00
4:35 AM,33.8,32.0,93,30.05,10.0,Calm,Calm,-,N/A,,Overcast,0,2014-02-03 12:35:00
4:55 AM,33.8,30.2,87,30.06,10.0,Calm,Calm,-,N/A,,Overcast,0,2014-02-03 12:55:00
5:15 AM,33.8,30.2,87,30.05,10.0,Calm,Calm,-,N/A,,Mostly Cloudy,0,2014-02-03 13:15:00
5:35 AM,32.0,30.2,93,30.05,-9999.0,Calm,Calm,-,N/A,,Unknown,0,2014-02-03 13:35:00
5:55 AM,32.0,30.2,93,30.05,10.0,South,3.5,-,N/A,,Partly Cloudy,170,2014-02-03 13:55:00
6:15 AM,30.2,26.6,86,30.05,10.0,Calm,Calm,-,N/A,,Scattered Clouds,0,2014-02-03 14:15:00
6:35 AM,28.4,26.6,93,30.06,10.0,SSW,5.8,-,N/A,,Partly Cloudy,200,2014-02-03 14:35:00
6:55 AM,30.2,28.4,93,30.07,10.0,SSW,3.5,-,N/A,,Mostly Cloudy,200,2014-02-03 14:55:00
7:15 AM,32.0,28.4,87,30.07,10.0,SSW,3.5,-,N/A,,Overcast,200,2014-02-03 15:15:00
7:35 AM,32.0,28.4,87,30.08,10.0,South,3.5,-,N/A,,Overcast,190,2014-02-03 15:35:00
7:55 AM,32.0,30.2,93,30.09,10.0,WSW,3.5,-,N/A,,Overcast,240,2014-02-03 15:55:00
8:15 AM,33.8,30.2,87,30.09,10.0,South,4.6,-,N/A,,Overcast,180,2014-02-03 16:15:00
8:35 AM,33.8,30.2,87,30.10,10.0,Calm,Calm,-,N/A,,Overcast,0,2014-02-03 16:35:00
8:55 AM,33.8,32.0,93,30.11,-9999.0,Calm,Calm,-,N/A,,Overcast,0,2014-02-03 16:55:00
9:15 AM,33.8,32.0,93,30.12,10.0,Calm,Calm,-,N/A,,Overcast,0,2014-02-03 17:15:00
9:35 AM,35.6,33.8,93,30.12,10.0,Calm,Calm,-,N/A,,Overcast,0,2014-02-03 17:35:00
9:55 AM,37.4,35.6,93,30.12,10.0,Calm,Calm,-,N/A,,Overcast,0,2014-02-03 17:55:00
10:15 AM,39.2,37.4,93,30.12,10.0,Calm,Calm,-,N/A,,Mostly Cloudy,0,2014-02-03 18:15:00
10:35 AM,42.8,35.6,76,30.13,10.0,South,5.8,-,N/A,,Partly Cloudy,180,2014-02-03 18:35:00
10:55 AM,44.6,35.6,71,30.13,10.0,South,6.9,-,N/A,,Scattered Clouds,180,2014-02-03 18:55:00
11:15 AM,44.6,35.6,71,30.13,10.0,Calm,Calm,-,N/A,,Mostly Cloudy,0,2014-02-03 19:15:00
11:35 AM,44.6,35.6,71,30.13,10.0,NW,4.6,-,N/A,,Overcast,310,2014-02-03 19:35:00
11:55 AM,44.6,33.8,66,30.12,10.0,NW,8.1,-,N/A,,Overcast,310,2014-02-03 19:55:00
12:15 PM,44.6,32.0,61,30.11,10.0,WNW,5.8,-,N/A,,Mostly Cloudy,290,2014-02-03 20:15:00
12:35 PM,44.6,30.2,57,30.10,10.0,WNW,5.8,-,N/A,,Mostly Cloudy,290,2014-02-03 20:35:00
12:55 PM,44.6,33.8,66,30.09,10.0,West,5.8,-,N/A,,Scattered Clouds,280,2014-02-03 20:55:00
1:15 PM,46.4,33.8,62,30.08,10.0,West,9.2,-,N/A,,Mostly Cloudy,270,2014-02-03 21:15:00
1:35 PM,46.4,33.8,62,30.07,10.0,SW,8.1,-,N/A,,Overcast,230,2014-02-03 21:35:00
1:55 PM,46.4,33.8,62,30.07,10.0,SW,8.1,-,N/A,,Overcast,230,2014-02-03 21:55:00
2:15 PM,42.8,33.8,70,30.07,10.0,Calm,Calm,-,0.02,,Overcast,0,2014-02-03 22:15:00
2:35 PM,42.8,33.8,70,30.07,10.0,Calm,Calm,-,0.03,,Overcast,0,2014-02-03 22:35:00
2:55 PM,41.0,35.6,81,30.08,10.0,WNW,9.2,-,0.04,,Overcast,300,2014-02-03 22:55:00
3:15 PM,41.0,37.4,87,30.08,10.0,WNW,6.9,-,N/A,,Mostly Cloudy,300,2014-02-03 23:15:00
3:35 PM,41.0,37.4,87,30.09,10.0,WNW,8.1,-,N/A,,Overcast,290,2014-02-03 23:35:00
3:55 PM,41.0,35.6,81,30.09,10.0,WSW,4.6,-,N/A,,Mostly Cloudy,250,2014-02-03 23:55:00
4:15 PM,41.0,35.6,81,30.10,10.0,NW,9.2,-,N/A,,Mostly Cloudy,310,2014-02-04 00:15:00
4:35 PM,39.2,35.6,87,30.10,9.0,West,6.9,-,0.03,,Overcast,280,2014-02-04 00:35:00
4:55 PM,39.2,35.6,87,30.10,10.0,WSW,3.5,-,0.03,,Mostly Cloudy,250,2014-02-04 00:55:00
5:15 PM,37.4,35.6,93,30.10,10.0,Calm,Calm,-,N/A,,Scattered Clouds,0,2014-02-04 01:15:00
5:35 PM,37.4,35.6,93,30.10,10.0,Calm,Calm,-,N/A,,Partly Cloudy,0,2014-02-04 01:35:00
5:55 PM,35.6,33.8,93,30.11,10.0,SW,4.6,-,N/A,,Mostly Cloudy,220,2014-02-04 01:55:00
6:15 PM,37.4,33.8,87,30.11,10.0,SSW,3.5,-,N/A,,Scattered Clouds,210,2014-02-04 02:15:00
6:35 PM,35.6,35.6,100,30.11,10.0,WSW,4.6,-,N/A,,Scattered Clouds,250,2014-02-04 02:35:00
6:55 PM,-9999,-9999,N/A,30.10,10.0,Calm,Calm,-,N/A,,Mostly Cloudy,0,2014-02-04 02:55:00
7:15 PM,35.6,33.8,93,30.11,10.0,NW,4.6,-,N/A,,Mostly Cloudy,320,2014-02-04 03:15:00
7:35 PM,35.6,33.8,93,30.12,10.0,Calm,Calm,-,N/A,,Overcast,0,2014-02-04 03:35:00
7:55 PM,37.4,35.6,93,30.12,-9999.0,NW,5.8,-,N/A,,Unknown,320,2014-02-04 03:55:00
8:15 PM,35.6,33.8,93,30.12,10.0,Calm,Calm,-,N/A,,Overcast,0,2014-02-04 04:15:00
8:35 PM,37.4,33.8,87,30.13,-9999.0,Calm,Calm,-,N/A,,Unknown,0,2014-02-04 04:35:00
8:55 PM,37.4,33.8,87,30.13,10.0,Calm,Calm,-,N/A,,Overcast,0,2014-02-04 04:55:00
9:15 PM,35.6,33.8,93,30.13,10.0,Calm,Calm,-,N/A,,Overcast,0,2014-02-04 05:15:00
9:35 PM,35.6,33.8,93,30.13,10.0,Calm,Calm,-,N/A,,Overcast,0,2014-02-04 05:35:00
9:55 PM,35.6,33.8,93,30.13,10.0,NW,3.5,-,N/A,,Overcast,310,2014-02-04 05:55:00
10:15 PM,35.6,33.8,93,30.14,10.0,Calm,Calm,-,N/A,,Overcast,0,2014-02-04 06:15:00
10:35 PM,35.6,33.8,93,30.14,10.0,WNW,3.5,-,N/A,,Overcast,300,2014-02-04 06:35:00
10:55 PM,35.6,33.8,93,30.14,10.0,NW,4.6,-,N/A,,Overcast,320,2014-02-04 06:55:00
11:15 PM,35.6,33.8,93,30.15,10.0,NW,4.6,-,N/A,,Overcast,310,2014-02-04 07:15:00
11:35 PM,35.6,33.8,93,30.15,10.0,Calm,Calm,-,N/A,,Overcast,0,2014-02-04 07:35:00
11:55 PM,35.6,33.8,93,30.16,10.0,Calm,Calm,-,N/A,,Overcast,0,2014-02-04 07:55:00